createdAt,value
2022-08-25T00:00:19.983Z,80.65
2022-08-25T00:01:19.945Z,80.11
2022-08-25T00:02:19.993Z,80.41
2022-08-25T00:03:19.921Z,80.51
2022-08-25T00:04:19.900Z,80.94
2022-08-25T00:05:19.967Z,81.04
2022-08-25T00:06:19.891Z,81.65
2022-08-25T00:07:19.918Z,82.39
2022-08-25T00:08:19.932Z,81.18
2022-08-25T00:09:19.843Z,81.38
2022-08-25T00:10:19.838Z,81.68
2022-08-25T00:11:19.854Z,82.63
2022-08-25T00:12:19.810Z,80.88
2022-08-25T00:13:19.832Z,80.94
2022-08-25T00:14:19.799Z,80.85
2022-08-25T00:15:19.795Z,80.94
2022-08-25T00:16:19.854Z,80.85
2022-08-25T00:17:19.789Z,81.04
2022-08-25T00:18:20.158Z,81.35
2022-08-25T00:19:19.768Z,81.09
2022-08-25T00:20:19.726Z,82.43
2022-08-25T00:21:19.720Z,83.07
2022-08-25T00:22:19.713Z,84.17
2022-08-25T00:23:19.723Z,83.91
2022-08-25T00:24:19.766Z,85.02
2022-08-25T00:25:19.664Z,85.36
2022-08-25T00:26:19.681Z,85.80
2022-08-25T00:27:19.693Z,85.66
2022-08-25T00:28:19.709Z,85.80
2022-08-25T00:29:19.625Z,86.50
2022-08-25T00:30:19.632Z,85.96
2022-08-25T00:31:19.690Z,86.16
2022-08-25T00:32:19.595Z,84.85
2022-08-25T00:33:19.603Z,86.26
2022-08-25T00:34:19.579Z,85.66
2022-08-25T00:35:19.564Z,84.21
2022-08-25T00:36:19.599Z,84.27
2022-08-25T00:37:19.534Z,83.13
2022-08-25T00:38:19.541Z,82.82
2022-08-25T00:39:19.507Z,83.03
2022-08-25T00:40:19.574Z,83.27
2022-08-25T00:41:19.555Z,83.77
2022-08-25T00:42:19.506Z,84.07
2022-08-25T00:43:19.507Z,83.67
2022-08-25T00:44:19.475Z,83.87
2022-08-25T00:45:19.448Z,83.97
2022-08-25T00:46:19.542Z,84.17
2022-08-25T00:47:19.464Z,84.71
2022-08-25T00:48:19.460Z,85.56
2022-08-25T00:49:24.831Z,85.70
2022-08-25T00:50:20.409Z,85.70
2022-08-25T00:51:19.388Z,86.94
2022-08-25T00:52:19.373Z,88.59
2022-08-25T00:53:19.402Z,88.29
2022-08-25T00:54:19.396Z,88.59
2022-08-25T00:55:19.334Z,89.64
2022-08-25T00:56:19.340Z,89.24
2022-08-25T00:57:19.344Z,89.99
2022-08-25T00:58:20.328Z,89.95
2022-08-25T00:59:19.296Z,90.39
2022-08-25T01:00:19.287Z,90.94
2022-08-25T01:01:19.313Z,91.54
2022-08-25T01:02:19.307Z,92.09
2022-08-25T01:03:19.320Z,92.29
2022-08-25T01:04:19.246Z,92.59
2022-08-25T01:05:19.237Z,92.59
2022-08-25T01:06:19.228Z,92.94
2022-08-25T01:07:19.214Z,93.54
2022-08-25T01:08:19.229Z,94.80
2022-08-25T01:09:19.213Z,94.29
2022-08-25T01:10:19.183Z,95.10
2022-08-25T01:11:19.208Z,95.20
2022-08-25T01:12:19.223Z,95.00
2022-08-25T01:13:19.223Z,95.20
2022-08-25T01:14:19.201Z,95.00
2022-08-25T01:15:19.119Z,95.90
2022-08-25T01:16:19.212Z,95.90
2022-08-25T01:17:19.124Z,95.50
2022-08-25T01:18:19.105Z,95.30
2022-08-25T01:19:19.082Z,94.59
2022-08-25T01:20:19.087Z,95.10
2022-08-25T01:21:19.055Z,95.40
2022-08-25T01:22:19.107Z,95.10
2022-08-25T01:23:19.114Z,95.75
2022-08-25T01:24:19.032Z,96.01
2022-08-25T01:25:19.010Z,95.70
2022-08-25T01:26:19.039Z,96.21
2022-08-25T01:27:19.998Z,96.25
2022-08-25T01:28:19.000Z,96.25
2022-08-25T01:29:18.966Z,96.05
2022-08-25T01:30:18.947Z,96.56
2022-08-25T01:31:24.177Z,96.56
2022-08-25T01:32:19.985Z,96.30
2022-08-25T01:33:18.929Z,96.66
2022-08-25T01:34:18.954Z,96.10
2022-08-25T01:35:18.913Z,96.76
2022-08-25T01:36:18.898Z,97.56
2022-08-25T01:37:18.898Z,96.66
2022-08-25T01:38:18.913Z,96.15
2022-08-25T01:39:18.854Z,96.45
2022-08-25T01:40:18.871Z,96.10
2022-08-25T01:41:18.844Z,96.40
2022-08-25T01:42:18.853Z,96.40
2022-08-25T01:43:18.841Z,96.10
2022-08-25T01:44:18.811Z,96.30
2022-08-25T01:45:18.787Z,96.70
2022-08-25T01:46:18.860Z,97.76
2022-08-25T01:47:18.770Z,98.02
2022-08-25T01:48:18.802Z,98.02
2022-08-25T01:49:18.806Z,97.91
2022-08-25T01:50:18.733Z,96.80
2022-08-25T01:51:18.732Z,96.34
2022-08-25T01:52:18.771Z,96.89
2022-08-25T01:53:18.725Z,98.11
2022-08-25T01:54:18.713Z,97.71
2022-08-25T01:55:18.718Z,97.91
2022-08-25T01:56:18.686Z,99.42
2022-08-25T01:57:18.666Z,99.27
2022-08-25T01:58:18.671Z,97.61
2022-08-25T01:59:21.634Z,97.41
2022-08-25T02:00:19.641Z,96.60
2022-08-25T02:01:18.671Z,96.40
2022-08-25T02:02:18.679Z,97.56
2022-08-25T02:03:19.175Z,96.75
2022-08-25T02:04:18.609Z,97.36
2022-08-25T02:05:23.222Z,98.47
2022-08-25T02:06:19.629Z,97.96
2022-08-25T02:07:18.611Z,97.86
2022-08-25T02:08:18.557Z,97.86
2022-08-25T02:09:18.545Z,98.11
2022-08-25T02:10:18.535Z,98.57
2022-08-25T02:11:18.522Z,99.58
2022-08-25T02:12:18.534Z,99.07
2022-08-25T02:13:18.531Z,98.57
2022-08-25T02:14:18.492Z,98.02
2022-08-25T02:15:18.494Z,97.61
2022-08-25T02:16:18.505Z,97.41
2022-08-25T02:17:18.471Z,96.34
2022-08-25T02:18:18.525Z,96.25
2022-08-25T02:19:18.457Z,97.45
2022-08-25T02:20:18.421Z,97.45
2022-08-25T02:21:18.441Z,97.71
2022-08-25T02:22:18.400Z,98.21
2022-08-25T02:23:18.399Z,98.61
2022-08-25T02:24:18.385Z,99.12
2022-08-25T02:25:18.367Z,98.71
2022-08-25T02:26:18.349Z,98.41
2022-08-25T02:27:18.334Z,98.31
2022-08-25T02:28:18.330Z,99.22
2022-08-25T02:29:18.328Z,99.47
2022-08-25T02:30:18.300Z,99.42
2022-08-25T02:31:18.372Z,99.37
2022-08-25T02:32:18.286Z,99.16
2022-08-25T02:33:18.303Z,99.47
2022-08-25T02:34:18.262Z,99.37
2022-08-25T02:35:18.267Z,99.47
2022-08-25T02:36:18.236Z,99.37
2022-08-25T02:37:18.227Z,99.99
2022-08-25T02:38:18.267Z,99.67
2022-08-25T02:39:18.210Z,98.56
2022-08-25T02:40:18.222Z,98.25
2022-08-25T02:41:18.185Z,99.16
2022-08-25T02:42:18.164Z,99.22
2022-08-25T02:43:18.200Z,98.82
2022-08-25T02:44:18.186Z,99.16
2022-08-25T02:45:18.146Z,99.16
2022-08-25T02:46:18.161Z,99.42
2022-08-25T02:47:18.119Z,99.32
2022-08-25T02:48:19.096Z,98.27
2022-08-25T02:49:18.116Z,98.16
2022-08-25T02:50:18.080Z,97.36
2022-08-25T02:51:18.081Z,97.66
2022-08-25T02:52:18.071Z,97.36
2022-08-25T02:53:18.069Z,97.66
2022-08-25T02:54:18.052Z,97.76
2022-08-25T02:55:18.055Z,97.61
2022-08-25T02:56:18.024Z,97.61
2022-08-25T02:57:18.062Z,96.91
2022-08-25T02:58:18.016Z,97.21
2022-08-25T02:59:18.047Z,97.41
2022-08-25T03:00:18.009Z,97.11
2022-08-25T03:01:18.038Z,97.21
2022-08-25T03:02:18.010Z,96.45
2022-08-25T03:03:17.970Z,96.40
2022-08-25T03:04:17.926Z,96.70
2022-08-25T03:05:17.989Z,96.30
2022-08-25T03:06:17.987Z,95.75
2022-08-25T03:07:17.915Z,95.45
2022-08-25T03:08:17.925Z,95.25
2022-08-25T03:09:17.929Z,95.10
2022-08-25T03:10:17.879Z,94.75
2022-08-25T03:11:17.868Z,93.95
2022-08-25T03:12:17.840Z,94.15
2022-08-25T03:13:17.910Z,93.04
2022-08-25T03:14:17.830Z,92.79
2022-08-25T03:15:17.814Z,91.89
2022-08-25T03:16:17.847Z,92.19
2022-08-25T03:17:17.830Z,91.99
2022-08-25T03:18:17.792Z,92.09
2022-08-25T03:19:17.781Z,91.74
2022-08-25T03:20:17.802Z,90.69
2022-08-25T03:21:17.735Z,90.39
2022-08-25T03:22:17.730Z,89.95
2022-08-25T03:23:17.759Z,89.64
2022-08-25T03:24:17.720Z,89.34
2022-08-25T03:25:22.153Z,89.24
2022-08-25T03:26:18.710Z,89.14
2022-08-25T03:27:17.701Z,89.89
2022-08-25T03:28:17.681Z,89.64
2022-08-25T03:29:17.651Z,89.54
2022-08-25T03:30:17.659Z,89.14
2022-08-25T03:31:17.679Z,89.44
2022-08-25T03:32:17.621Z,89.34
2022-08-25T03:33:17.652Z,88.43
2022-08-25T03:34:17.615Z,89.34
2022-08-25T03:35:17.612Z,89.64
2022-08-25T03:36:17.572Z,89.44
2022-08-25T03:37:17.634Z,89.44
2022-08-25T03:38:17.597Z,89.44
2022-08-25T03:39:17.563Z,89.44
2022-08-25T03:40:17.590Z,89.44
2022-08-25T03:41:17.533Z,89.44
2022-08-25T03:42:17.534Z,89.34
2022-08-25T03:43:17.512Z,89.44
2022-08-25T03:44:17.495Z,88.64
2022-08-25T03:45:17.468Z,88.09
2022-08-25T03:46:17.502Z,87.89
2022-08-25T03:47:17.450Z,88.39
2022-08-25T03:48:17.491Z,87.35
2022-08-25T03:49:17.454Z,87.45
2022-08-25T03:50:17.421Z,87.35
2022-08-25T03:51:17.408Z,87.35
2022-08-25T03:52:17.419Z,86.85
2022-08-25T03:53:17.438Z,86.60
2022-08-25T03:54:17.383Z,86.30
2022-08-25T03:55:17.369Z,86.00
2022-08-25T03:56:17.355Z,86.20
2022-08-25T03:57:17.335Z,86.80
2022-08-25T03:58:17.400Z,86.00
2022-08-25T03:59:17.353Z,85.60
2022-08-25T04:00:17.300Z,85.46
2022-08-25T04:01:18.189Z,84.51
2022-08-25T04:02:17.374Z,84.91
2022-08-25T04:03:17.324Z,84.95
2022-08-25T04:04:17.267Z,84.95
2022-08-25T04:05:17.273Z,84.61
2022-08-25T04:06:17.274Z,85.25
2022-08-25T04:07:17.266Z,84.95
2022-08-25T04:08:17.268Z,84.55
2022-08-25T04:09:17.230Z,85.05
2022-08-25T04:10:17.225Z,84.85
2022-08-25T04:11:17.216Z,84.85
2022-08-25T04:12:17.218Z,85.70
2022-08-25T04:13:17.210Z,86.40
2022-08-25T04:14:17.146Z,87.15
2022-08-25T04:15:17.140Z,87.65
2022-08-25T04:16:17.174Z,86.99
2022-08-25T04:17:17.133Z,87.63
2022-08-25T04:18:17.176Z,89.44
2022-08-25T04:19:17.128Z,89.69
2022-08-25T04:20:17.091Z,89.93
2022-08-25T04:21:17.095Z,91.34
2022-08-25T04:22:17.105Z,91.28
2022-08-25T04:23:17.087Z,91.38
2022-08-25T04:24:17.101Z,91.78
2022-08-25T04:25:17.031Z,91.73
2022-08-25T04:26:17.026Z,92.03
2022-08-25T04:27:17.096Z,91.87
2022-08-25T04:28:17.020Z,92.58
2022-08-25T04:29:17.022Z,93.38
2022-08-25T04:30:17.033Z,93.53
2022-08-25T04:31:17.053Z,93.73
2022-08-25T04:32:17.006Z,94.18
2022-08-25T04:33:16.949Z,94.79
2022-08-25T04:34:29.490Z,94.79
2022-08-25T04:35:17.927Z,95.09
2022-08-25T04:36:16.911Z,96.04
2022-08-25T04:37:16.917Z,96.14
2022-08-25T04:38:16.891Z,96.04
2022-08-25T04:39:16.908Z,95.68
2022-08-25T04:40:16.921Z,96.39
2022-08-25T04:41:16.867Z,97.50
2022-08-25T04:42:16.839Z,97.85
2022-08-25T04:43:16.876Z,97.85
2022-08-25T04:44:16.858Z,98.16
2022-08-25T04:45:16.870Z,98.16
2022-08-25T04:46:16.830Z,98.16
2022-08-25T04:47:16.796Z,98.05
2022-08-25T04:48:16.808Z,98.20
2022-08-25T04:49:16.792Z,98.81
2022-08-25T04:50:16.794Z,99.21
2022-08-25T04:51:16.760Z,99.92
2022-08-25T04:52:16.777Z,99.99
2022-08-25T04:53:16.764Z,99.99
2022-08-25T04:54:16.778Z,99.99
2022-08-25T04:55:16.757Z,99.99
2022-08-25T04:56:16.690Z,99.99
2022-08-25T04:57:16.699Z,99.99
2022-08-25T04:58:16.766Z,99.99
2022-08-25T04:59:16.675Z,99.92
2022-08-25T05:00:16.677Z,99.92
2022-08-25T05:01:16.691Z,99.99
2022-08-25T05:02:16.669Z,99.99
2022-08-25T05:03:16.639Z,99.99
2022-08-25T05:04:27.596Z,99.99
2022-08-25T05:05:17.608Z,99.99
2022-08-25T05:06:16.591Z,99.99
2022-08-25T05:07:16.610Z,99.99
2022-08-25T05:08:16.661Z,99.99
2022-08-25T05:09:16.606Z,99.99
2022-08-25T05:10:16.542Z,99.99
2022-08-25T05:11:16.625Z,99.99
2022-08-25T05:12:16.549Z,99.99
2022-08-25T05:13:16.551Z,99.99
2022-08-25T05:14:16.554Z,99.99
2022-08-25T05:15:16.526Z,99.99
2022-08-25T05:16:16.568Z,99.99
2022-08-25T05:17:16.495Z,99.99
2022-08-25T05:18:16.452Z,99.99
2022-08-25T05:19:16.498Z,99.99
2022-08-25T05:20:16.446Z,99.99
2022-08-25T05:21:16.432Z,99.99
2022-08-25T05:22:16.402Z,99.99
2022-08-25T05:23:16.402Z,99.99
2022-08-25T05:24:16.406Z,99.99
2022-08-25T05:25:16.377Z,99.99
2022-08-25T05:26:19.748Z,99.07
2022-08-25T05:27:16.358Z,99.02
2022-08-25T05:28:16.355Z,99.13
2022-08-25T05:29:16.356Z,98.42
2022-08-25T05:30:16.354Z,99.13
2022-08-25T05:31:16.473Z,97.81
2022-08-25T05:32:16.303Z,97.77
2022-08-25T05:33:16.330Z,97.36
2022-08-25T05:34:16.301Z,96.76
2022-08-25T05:35:16.278Z,96.71
2022-08-25T05:36:16.252Z,95.90
2022-08-25T05:37:16.241Z,95.50
2022-08-25T05:38:16.298Z,94.71
2022-08-25T05:39:16.269Z,92.25
2022-08-25T05:40:16.328Z,91.80
2022-08-25T05:41:16.205Z,90.34
2022-08-25T05:42:16.201Z,89.50
2022-08-25T05:43:16.202Z,89.40
2022-08-25T05:44:19.323Z,88.90
2022-08-25T05:45:20.368Z,88.75
2022-08-25T05:46:16.229Z,88.75
2022-08-25T05:47:16.198Z,88.25
2022-08-25T05:48:16.163Z,87.24
2022-08-25T05:49:16.122Z,87.55
2022-08-25T05:50:16.158Z,87.01
2022-08-25T05:51:16.099Z,86.90
2022-08-25T05:52:18.235Z,86.90
2022-08-25T05:53:16.065Z,87.30
2022-08-25T05:54:16.085Z,87.01
2022-08-25T05:55:16.077Z,86.66
2022-08-25T05:56:16.091Z,86.36
2022-08-25T05:57:16.033Z,86.16
2022-08-25T05:58:16.010Z,86.16
2022-08-25T05:59:16.045Z,85.52
2022-08-25T06:00:16.027Z,85.61
2022-08-25T06:01:16.112Z,85.82
2022-08-25T06:02:16.075Z,85.82
2022-08-25T06:03:16.052Z,85.82
2022-08-25T06:04:15.998Z,85.68
2022-08-25T06:05:16.103Z,85.58
2022-08-25T06:06:15.965Z,86.42
2022-08-25T06:07:15.933Z,86.22
2022-08-25T06:08:15.908Z,86.52
2022-08-25T06:09:15.908Z,86.72
2022-08-25T06:10:15.957Z,86.82
2022-08-25T06:11:15.873Z,86.52
2022-08-25T06:12:15.866Z,86.82
2022-08-25T06:13:15.849Z,86.42
2022-08-25T06:14:15.918Z,86.22
2022-08-25T06:15:15.976Z,86.72
2022-08-25T06:16:15.908Z,86.48
2022-08-25T06:17:15.809Z,86.18
2022-08-25T06:18:15.813Z,85.97
2022-08-25T06:19:15.828Z,85.74
2022-08-25T06:20:15.844Z,86.14
2022-08-25T06:21:15.791Z,85.53
2022-08-25T06:22:15.809Z,85.74
2022-08-25T06:23:15.740Z,84.93
2022-08-25T06:24:16.002Z,85.13
2022-08-25T06:25:15.745Z,85.39
2022-08-25T06:26:20.812Z,84.69
2022-08-25T06:27:16.689Z,83.95
2022-08-25T06:28:15.687Z,83.35
2022-08-25T06:29:15.702Z,83.01
2022-08-25T06:30:16.205Z,82.27
2022-08-25T06:31:15.970Z,82.77
2022-08-25T06:32:15.648Z,81.93
2022-08-25T06:33:15.740Z,80.93
2022-08-25T06:34:15.632Z,81.33
2022-08-25T06:35:15.682Z,80.79
2022-08-25T06:36:15.653Z,80.69
2022-08-25T06:37:15.585Z,79.25
2022-08-25T06:38:15.596Z,79.75
2022-08-25T06:39:15.572Z,79.85
2022-08-25T06:40:15.666Z,79.96
2022-08-25T06:41:15.615Z,80.76
2022-08-25T06:42:15.639Z,80.45
2022-08-25T06:43:15.508Z,80.35
2022-08-25T06:44:15.543Z,80.32
2022-08-25T06:45:15.577Z,79.78
2022-08-25T06:46:15.720Z,78.64
2022-08-25T06:47:15.519Z,77.47
2022-08-25T06:48:15.468Z,75.43
2022-08-25T06:49:15.482Z,73.50
2022-08-25T06:50:15.515Z,71.84
2022-08-25T06:51:15.456Z,70.78
2022-08-25T06:52:15.473Z,71.15
2022-08-25T06:53:15.411Z,71.37
2022-08-25T06:54:15.453Z,67.94
2022-08-25T06:55:15.441Z,68.40
2022-08-25T06:56:15.511Z,69.79
2022-08-25T06:57:15.362Z,69.16
2022-08-25T06:58:15.411Z,67.41
2022-08-25T06:59:15.514Z,67.31
2022-08-25T07:00:15.366Z,65.96
2022-08-25T07:01:19.705Z,66.49
2022-08-25T07:02:16.394Z,67.87
2022-08-25T07:03:16.318Z,66.09
2022-08-25T07:04:15.303Z,66.65
2022-08-25T07:05:26.967Z,65.56
2022-08-25T07:06:18.196Z,64.67
2022-08-25T07:07:15.253Z,64.84
2022-08-25T07:08:15.248Z,63.13
2022-08-25T07:09:15.467Z,62.93
2022-08-25T07:10:15.278Z,63.69
2022-08-25T07:11:16.269Z,63.86
2022-08-25T07:12:15.198Z,63.83
2022-08-25T07:13:15.187Z,61.46
2022-08-25T07:14:15.207Z,60.87
2022-08-25T07:15:20.511Z,60.64
2022-08-25T07:16:16.263Z,61.24
2022-08-25T07:17:15.262Z,62.59
2022-08-25T07:18:15.134Z,61.69
2022-08-25T07:19:15.191Z,60.81
2022-08-25T07:20:15.149Z,60.58
2022-08-25T07:21:15.305Z,60.78
2022-08-25T07:22:15.219Z,62.22
2022-08-25T07:23:15.096Z,62.45
2022-08-25T07:24:15.131Z,60.84
2022-08-25T07:25:15.374Z,62.84
2022-08-25T07:26:36.321Z,63.01
2022-08-25T07:27:16.085Z,61.11
2022-08-25T07:28:15.042Z,58.15
2022-08-25T07:29:15.104Z,60.94
2022-08-25T07:30:15.014Z,63.40
2022-08-25T07:31:15.141Z,60.88
2022-08-25T07:32:15.117Z,59.40
2022-08-25T07:33:15.002Z,62.26
2022-08-25T07:34:15.158Z,62.41
2022-08-25T07:35:14.944Z,63.04
2022-08-25T07:36:15.028Z,62.91
2022-08-25T07:37:23.808Z,60.97
2022-08-25T07:38:19.757Z,62.02
2022-08-25T07:39:15.923Z,60.81
2022-08-25T07:40:14.994Z,62.09
2022-08-25T07:41:15.008Z,59.77
2022-08-25T07:42:14.921Z,58.78
2022-08-25T07:43:14.923Z,60.98
2022-08-25T07:44:15.031Z,61.08
2022-08-25T07:45:15.478Z,59.99
2022-08-25T07:46:14.959Z,60.68
2022-08-25T07:47:14.827Z,61.27
2022-08-25T07:48:14.947Z,60.68
2022-08-25T07:49:16.667Z,61.34
2022-08-25T07:50:14.865Z,60.98
2022-08-25T07:51:14.816Z,59.96
2022-08-25T07:52:14.893Z,61.61
2022-08-25T07:53:14.929Z,57.57
2022-08-25T07:54:14.830Z,60.03
2022-08-25T07:55:17.953Z,57.77
2022-08-25T07:56:14.769Z,58.46
2022-08-25T07:57:14.775Z,58.95
2022-08-25T07:58:14.702Z,61.54
2022-08-25T07:59:14.798Z,58.48
2022-08-25T08:00:14.776Z,62.26
2022-08-25T08:01:14.707Z,61.87
2022-08-25T08:02:18.286Z,60.75
2022-08-25T08:03:29.364Z,62.82
2022-08-25T08:04:15.724Z,58.72
2022-08-25T08:05:14.757Z,58.01
2022-08-25T08:06:14.690Z,58.37
2022-08-25T08:07:14.617Z,57.68
2022-08-25T08:08:14.651Z,57.78
2022-08-25T08:09:14.571Z,59.26
2022-08-25T08:10:48.122Z,58.15
2022-08-25T08:11:15.624Z,58.47
2022-08-25T08:12:15.138Z,56.31
2022-08-25T08:13:18.065Z,58.57
2022-08-25T08:14:14.529Z,60.17
2022-08-25T08:15:14.537Z,59.36
2022-08-25T08:16:14.617Z,57.66
2022-08-25T08:17:14.607Z,60.47
2022-08-25T08:18:14.499Z,56.06
2022-08-25T08:19:14.499Z,55.18
2022-08-25T08:20:14.547Z,58.34
2022-08-25T08:21:19.225Z,56.58
2022-08-25T08:22:15.511Z,55.26
2022-08-25T08:23:14.472Z,60.27
2022-08-25T08:24:25.037Z,58.76
2022-08-25T08:25:21.251Z,57.98
2022-08-25T08:26:15.417Z,56.69
2022-08-25T08:27:14.401Z,58.20
2022-08-25T08:28:14.401Z,58.37
2022-08-25T08:29:14.440Z,57.56
2022-08-25T08:30:14.372Z,58.58
2022-08-25T08:31:14.384Z,57.48
2022-08-25T08:32:14.337Z,57.18
2022-08-25T08:33:14.428Z,57.57
2022-08-25T08:34:14.406Z,58.29
2022-08-25T08:35:14.323Z,58.22
2022-08-25T08:36:14.318Z,57.17
2022-08-25T08:37:14.355Z,58.47
2022-08-25T08:38:19.618Z,56.68
2022-08-25T08:39:15.323Z,55.57
2022-08-25T08:40:14.332Z,57.66
2022-08-25T08:41:14.270Z,56.65
2022-08-25T08:42:16.789Z,57.86
2022-08-25T08:43:17.868Z,57.03
2022-08-25T08:44:14.198Z,59.39
2022-08-25T08:45:14.235Z,56.11
2022-08-25T08:46:14.305Z,56.80
2022-08-25T08:47:14.168Z,60.24
2022-08-25T08:48:14.162Z,55.69
2022-08-25T08:49:14.145Z,56.72
2022-08-25T08:50:16.630Z,54.95
2022-08-25T08:51:15.172Z,55.54
2022-08-25T08:52:14.123Z,58.19
2022-08-25T08:53:14.199Z,55.18
2022-08-25T08:54:15.583Z,60.28
2022-08-25T08:55:14.197Z,57.63
2022-08-25T08:56:14.078Z,55.85
2022-08-25T08:57:14.074Z,56.53
2022-08-25T08:58:14.093Z,57.60
2022-08-25T08:59:14.067Z,58.57
2022-08-25T09:00:14.089Z,63.21
2022-08-25T09:01:14.153Z,62.95
2022-08-25T09:02:14.008Z,62.30
2022-08-25T09:03:14.116Z,57.45
2022-08-25T09:04:14.035Z,57.70
2022-08-25T09:05:14.039Z,59.09
2022-08-25T09:06:13.969Z,57.03
2022-08-25T09:07:13.948Z,58.72
2022-08-25T09:08:13.951Z,56.63
2022-08-25T09:09:14.943Z,57.59
2022-08-25T09:10:14.945Z,58.81
2022-08-25T09:11:16.297Z,56.42
2022-08-25T09:12:13.926Z,59.08
2022-08-25T09:13:15.294Z,60.32
2022-08-25T09:14:13.903Z,56.20
2022-08-25T09:15:13.905Z,59.44
2022-08-25T09:16:22.427Z,59.11
2022-08-25T09:17:14.905Z,60.49
2022-08-25T09:18:13.964Z,54.80
2022-08-25T09:19:21.221Z,56.76
2022-08-25T09:20:18.691Z,57.84
2022-08-25T09:21:13.825Z,54.33
2022-08-25T09:22:33.297Z,53.90
2022-08-25T09:23:14.815Z,56.06
2022-08-25T09:24:15.802Z,61.13
2022-08-25T09:25:18.771Z,58.36
2022-08-25T09:26:14.757Z,54.90
2022-08-25T09:27:13.772Z,54.77
2022-08-25T09:28:13.827Z,57.00
2022-08-25T09:29:16.741Z,57.68
2022-08-25T09:30:13.747Z,54.48
2022-08-25T09:31:13.934Z,53.20
2022-08-25T09:32:13.739Z,59.87
2022-08-25T09:33:13.675Z,54.21
2022-08-25T09:34:14.730Z,55.00
2022-08-25T09:35:13.988Z,55.29
2022-08-25T09:36:13.729Z,54.56
2022-08-25T09:37:13.707Z,54.29
2022-08-25T09:38:13.634Z,56.59
2022-08-25T09:39:13.733Z,57.45
2022-08-25T09:40:13.784Z,55.98
2022-08-25T09:41:13.635Z,56.15
2022-08-25T09:42:13.637Z,56.24
2022-08-25T09:43:13.615Z,58.79
2022-08-25T09:44:13.618Z,55.26
2022-08-25T09:45:13.563Z,54.09
2022-08-25T09:46:13.670Z,58.11
2022-08-25T09:47:13.581Z,60.36
2022-08-25T09:48:13.693Z,54.87
2022-08-25T09:49:13.625Z,54.53
2022-08-25T09:50:13.697Z,56.67
2022-08-25T09:51:14.483Z,58.47
2022-08-25T09:52:13.605Z,54.06
2022-08-25T09:53:18.571Z,57.68
2022-08-25T09:54:14.489Z,54.03
2022-08-25T09:55:13.510Z,56.06
2022-08-25T09:56:13.478Z,56.04
2022-08-25T09:57:13.659Z,53.08
2022-08-25T09:58:13.434Z,56.20
2022-08-25T09:59:15.637Z,56.47
2022-08-25T10:00:13.540Z,52.25
2022-08-25T10:01:13.564Z,51.10
2022-08-25T10:02:15.818Z,54.08
2022-08-25T10:03:13.369Z,54.67
2022-08-25T10:04:17.697Z,54.15
2022-08-25T10:05:14.463Z,52.98
2022-08-25T10:06:13.748Z,53.56
2022-08-25T10:07:13.354Z,52.78
2022-08-25T10:08:14.694Z,53.27
2022-08-25T10:09:13.324Z,54.96
2022-08-25T10:10:13.436Z,56.99
2022-08-25T10:11:13.314Z,57.25
2022-08-25T10:12:13.436Z,54.39
2022-08-25T10:13:13.272Z,53.91
2022-08-25T10:14:13.290Z,51.27
2022-08-25T10:15:13.410Z,54.56
2022-08-25T10:16:20.227Z,55.54
2022-08-25T10:17:14.333Z,52.48
2022-08-25T10:18:13.263Z,53.27
2022-08-25T10:19:13.226Z,50.59
2022-08-25T10:20:13.207Z,53.97
2022-08-25T10:21:13.246Z,52.15
2022-08-25T10:22:13.261Z,52.44
2022-08-25T10:23:13.260Z,53.03
2022-08-25T10:24:13.337Z,54.27
2022-08-25T10:25:13.207Z,55.15
2022-08-25T10:26:13.181Z,56.22
2022-08-25T10:27:13.197Z,52.12
2022-08-25T10:28:13.136Z,50.82
2022-08-25T10:29:13.152Z,51.14
2022-08-25T10:30:13.150Z,54.30
2022-08-25T10:31:13.140Z,51.56
2022-08-25T10:32:13.129Z,52.90
2022-08-25T10:33:13.101Z,49.29
2022-08-25T10:34:13.124Z,51.24
2022-08-25T10:35:13.040Z,54.17
2022-08-25T10:36:13.032Z,50.85
2022-08-25T10:37:13.041Z,52.83
2022-08-25T10:38:13.013Z,54.61
2022-08-25T10:39:34.247Z,51.29
2022-08-25T10:40:14.140Z,50.98
2022-08-25T10:41:13.002Z,53.22
2022-08-25T10:42:13.140Z,54.22
2022-08-25T10:43:12.960Z,51.68
2022-08-25T10:44:13.035Z,51.37
2022-08-25T10:45:16.705Z,51.95
2022-08-25T10:46:14.013Z,53.83
2022-08-25T10:47:12.961Z,57.52
2022-08-25T10:48:12.980Z,50.56
2022-08-25T10:49:12.943Z,54.79
2022-08-25T10:50:13.073Z,52.22
2022-08-25T10:51:18.118Z,51.51
2022-08-25T10:52:13.883Z,53.85
2022-08-25T10:53:12.883Z,50.14
2022-08-25T10:54:12.864Z,52.93
2022-08-25T10:55:12.850Z,51.73
2022-08-25T10:56:12.913Z,55.05
2022-08-25T10:57:12.861Z,54.20
2022-08-25T10:58:12.915Z,51.82
2022-08-25T10:59:12.822Z,51.49
2022-08-25T11:00:12.818Z,52.34
2022-08-25T11:01:12.792Z,50.36
2022-08-25T11:02:12.772Z,49.78
2022-08-25T11:03:12.844Z,50.14
2022-08-25T11:04:12.843Z,50.53
2022-08-25T11:05:12.989Z,49.76
2022-08-25T11:06:12.742Z,52.19
2022-08-25T11:07:12.782Z,50.80
2022-08-25T11:08:12.791Z,52.75
2022-08-25T11:09:12.701Z,48.78
2022-08-25T11:10:12.741Z,52.87
2022-08-25T11:11:12.686Z,49.07
2022-08-25T11:12:12.678Z,46.07
2022-08-25T11:13:12.666Z,47.56
2022-08-25T11:14:12.670Z,49.33
2022-08-25T11:15:12.649Z,50.98
2022-08-25T11:16:17.564Z,49.85
2022-08-25T11:17:13.677Z,49.66
2022-08-25T11:18:15.044Z,49.17
2022-08-25T11:19:12.610Z,49.54
2022-08-25T11:20:15.402Z,46.14
2022-08-25T11:21:13.638Z,49.63
2022-08-25T11:22:12.580Z,47.22
2022-08-25T11:23:12.555Z,49.37
2022-08-25T11:24:12.549Z,50.73
2022-08-25T11:25:12.594Z,48.51
2022-08-25T11:26:12.547Z,48.90
2022-08-25T11:27:12.551Z,46.58
2022-08-25T11:28:12.550Z,48.16
2022-08-25T11:29:12.516Z,46.70
2022-08-25T11:30:12.521Z,51.24
2022-08-25T11:31:12.522Z,48.29
2022-08-25T11:32:12.495Z,54.24
2022-08-25T11:33:12.494Z,47.46
2022-08-25T11:34:12.456Z,46.44
2022-08-25T11:35:12.700Z,45.95
2022-08-25T11:36:12.443Z,49.07
2022-08-25T11:37:12.431Z,49.76
2022-08-25T11:38:12.481Z,50.34
2022-08-25T11:39:12.411Z,51.41
2022-08-25T11:40:12.444Z,45.36
2022-08-25T11:41:12.422Z,47.41
2022-08-25T11:42:12.376Z,49.95
2022-08-25T11:43:12.370Z,50.14
2022-08-25T11:44:12.373Z,51.02
2022-08-25T11:45:12.457Z,48.56
2022-08-25T11:46:12.361Z,48.95
2022-08-25T11:47:21.036Z,46.41
2022-08-25T11:48:13.323Z,45.15
2022-08-25T11:49:12.321Z,43.37
2022-08-25T11:50:12.345Z,44.46
2022-08-25T11:51:12.301Z,44.32
2022-08-25T11:52:12.461Z,45.28
2022-08-25T11:53:12.338Z,45.57
2022-08-25T11:54:12.337Z,45.98
2022-08-25T11:55:12.299Z,45.67
2022-08-25T11:56:12.283Z,48.58
2022-08-25T11:57:12.252Z,44.79
2022-08-25T11:58:12.225Z,46.27
2022-08-25T11:59:12.235Z,46.31
2022-08-25T12:00:12.262Z,44.60
2022-08-25T12:01:12.298Z,46.34
2022-08-25T12:02:12.231Z,44.66
2022-08-25T12:03:12.224Z,47.46
2022-08-25T12:04:12.229Z,43.78
2022-08-25T12:05:12.337Z,46.53
2022-08-25T12:06:12.198Z,43.02
2022-08-25T12:07:12.186Z,44.90
2022-08-25T12:08:12.173Z,49.17
2022-08-25T12:09:12.121Z,47.71
2022-08-25T12:10:12.155Z,45.05
2022-08-25T12:11:12.154Z,45.42
2022-08-25T12:12:12.107Z,44.03
2022-08-25T12:13:12.087Z,45.88
2022-08-25T12:14:12.074Z,48.32
2022-08-25T12:15:12.067Z,45.74
2022-08-25T12:16:12.142Z,46.40
2022-08-25T12:17:12.297Z,44.53
2022-08-25T12:18:12.444Z,42.99
2022-08-25T12:19:12.031Z,43.58
2022-08-25T12:20:12.077Z,44.65
2022-08-25T12:21:12.016Z,44.55
2022-08-25T12:22:12.011Z,47.25
2022-08-25T12:23:12.096Z,43.36
2022-08-25T12:24:12.035Z,40.06
2022-08-25T12:25:12.020Z,39.57
2022-08-25T12:26:12.003Z,43.24
2022-08-25T12:27:11.992Z,40.50
2022-08-25T12:28:11.947Z,41.08
2022-08-25T12:29:11.947Z,42.00
2022-08-25T12:30:15.968Z,40.15
2022-08-25T12:31:13.007Z,40.37
2022-08-25T12:32:11.918Z,41.24
2022-08-25T12:33:11.982Z,41.80
2022-08-25T12:34:12.582Z,40.83
2022-08-25T12:35:11.944Z,40.62
2022-08-25T12:36:11.863Z,40.03
2022-08-25T12:37:11.965Z,41.69
2022-08-25T12:38:11.856Z,41.86
2022-08-25T12:39:11.890Z,42.52
2022-08-25T12:40:11.895Z,42.74
2022-08-25T12:41:11.834Z,41.10
2022-08-25T12:42:11.831Z,41.90
2022-08-25T12:43:11.807Z,42.72
2022-08-25T12:44:11.828Z,41.77
2022-08-25T12:45:11.889Z,45.74
2022-08-25T12:46:11.845Z,45.52
2022-08-25T12:47:11.777Z,43.79
2022-08-25T12:48:11.804Z,45.84
2022-08-25T12:49:11.764Z,42.19
2022-08-25T12:50:11.757Z,41.06
2022-08-25T12:51:11.746Z,41.73
2022-08-25T12:52:11.758Z,42.44